Time;durP1;ratioP1;P1;durP2;ratioP2;P2;SDS_P1;SDS_P2;PMS_P1;PMS_P2;Temp;Humidity;BMP_temperature;BMP_pressure;BME280_temperature;BME280_humidity;BME280_pressure;Samples;Min_cycle;Max_cycle;Signal;HPM_P1;HPM_P2
2023/05/29 00:01:45;;;;;;;;;;;;;;;24.21;86.23;99341.25;5037716;28;20003;-44
2023/05/29 00:04:12;;;;;;;;;;;;;;;24.79;85.49;99345.22;5038841;28;20008;-43
2023/05/29 00:06:37;;;;;;;;;;;;;;;25.28;84.55;99341.00;5039458;28;19922;-43
2023/05/29 00:09:02;;;;;;;;;;;;;;;24.34;83.02;99346.31;5038121;28;19931;-43
2023/05/29 00:11:27;;;;;;;;;;;;;;;24.20;83.83;99344.84;5038206;28;19956;-43
2023/05/29 00:13:53;;;;;;;;;;;;;;;24.14;86.87;99363.78;5038318;28;19921;-44
2023/05/29 00:16:18;;;;;;;;;;;;;;;25.00;84.55;99338.09;5039475;28;19917;-43
2023/05/29 00:18:45;;;;;;;;;;;;;;;25.00;82.26;99327.56;5038401;28;20886;-43
2023/05/29 00:21:10;;;;;;;;;;;;;;;24.64;82.60;99331.56;5039466;28;19920;-43
2023/05/29 00:23:36;;;;;;;;;;;;;;;24.76;82.81;99334.94;5037450;28;20439;-43
2023/05/29 00:26:01;;;;;;;;;;;;;;;24.03;84.24;99353.28;5038082;28;19921;-43
2023/05/29 00:28:26;;;;;;;;;;;;;;;25.24;82.46;99332.50;5038887;28;19971;-43
2023/05/29 00:30:51;;;;;;;;;;;;;;;24.55;83.99;99346.34;5036817;28;19925;-43
2023/05/29 00:33:18;;;;;;;;;;;;;;;24.22;82.99;99344.69;5038017;28;19921;-43
2023/05/29 00:35:43;;;;;;;;;;;;;;;24.54;84.88;99352.59;5038588;28;19927;-43
2023/05/29 00:38:08;;;;;;;;;;;;;;;24.78;84.19;99348.81;5037875;28;19920;-43
2023/05/29 00:40:34;;;;;;;;;;;;;;;24.81;81.67;99336.25;5036669;28;19916;-43
2023/05/29 00:42:59;;;;;;;;;;;;;;;23.75;82.41;99355.56;5038202;28;19927;-43
2023/05/29 00:45:26;;;;;;;;;;;;;;;21.76;90.69;99428.41;5038147;28;19931;-43
2023/05/29 00:47:51;;;;;;;;;;;;;;;20.87;95.44;99438.06;5038719;28;20050;-43
2023/05/29 00:50:17;;;;;;;;;;;;;;;20.63;97.29;99440.53;5038774;28;19921;-43
2023/05/29 00:52:43;;;;;;;;;;;;;;;19.80;100.00;99466.78;5020841;28;19951;-43
2023/05/29 00:55:08;;;;;;;;;;;;;;;20.08;100.00;99473.72;5020893;28;20015;-43
2023/05/29 00:57:34;;;;;;;;;;;;;;;20.35;100.00;99459.81;5037290;28;19925;-43
2023/05/29 00:59:59;;;;;;;;;;;;;;;21.37;100.00;99422.41;5019842;28;19920;-43
2023/05/29 01:02:24;;;;;;;;;;;;;;;19.98;100.00;99454.28;5040209;28;20028;-43
2023/05/29 01:04:49;;;;;;;;;;;;;;;20.29;100.00;99461.03;5024402;28;20021;-43
2023/05/29 01:07:15;;;;;;;;;;;;;;;21.23;100.00;99441.69;5040901;28;19924;-43
2023/05/29 01:09:41;;;;;;;;;;;;;;;21.38;100.00;99424.09;5041514;28;19921;-43
2023/05/29 01:12:25;;;;;;;;;;;;;;;19.96;100.00;99462.25;5041542;28;19998;-43
2023/05/29 01:15:05;;;;;;;;;;;;;;;20.40;100.00;99479.47;5041479;28;20035;-43
2023/05/29 01:17:43;;;;;;;;;;;;;;;21.80;100.00;99445.63;5040872;28;19995;-43
2023/05/29 01:20:15;;;;;;;;;;;;;;;19.22;100.00;99487.66;5042061;28;19913;-42
2023/05/29 01:22:50;;;;;;;;;;;;;;;21.44;100.00;99449.88;5040485;28;20378;-43
2023/05/29 01:25:30;;;;;;;;;;;;;;;20.75;100.00;99455.41;5040928;28;19916;-43
2023/05/29 01:27:55;;;;;;;;;;;;;;;20.82;100.00;99461.94;5041952;28;20541;-43
2023/05/29 01:30:21;;;;;;;;;;;;;;;20.78;100.00;99463.06;5023696;28;19925;-43
2023/05/29 01:32:46;;;;;;;;;;;;;;;21.78;100.00;99442.25;5023025;28;19931;-43
2023/05/29 01:35:11;;;;;;;;;;;;;;;21.05;100.00;99468.22;5024007;28;19916;-42
2023/05/29 01:37:36;;;;;;;;;;;;;;;18.85;100.00;99522.09;5041142;28;19917;-42
2023/05/29 01:40:04;;;;;;;;;;;;;;;19.69;100.00;99514.47;5040399;28;20354;-42
2023/05/29 01:42:29;;;;;;;;;;;;;;;19.69;100.00;99504.03;5022770;28;19925;-42
2023/05/29 01:44:55;;;;;;;;;;;;;;;20.22;100.00;99478.06;5019774;28;19924;-43
2023/05/29 01:47:20;;;;;;;;;;;;;;;18.86;100.00;99539.41;5021579;28;19912;-43
2023/05/29 01:49:45;;;;;;;;;;;;;;;20.47;100.00;99479.91;5020912;28;19913;-43
2023/05/29 01:52:11;;;;;;;;;;;;;;;19.44;100.00;99507.25;5039740;28;19955;-43
2023/05/29 01:54:36;;;;;;;;;;;;;;;18.94;100.00;99530.22;5039532;28;19928;-43
2023/05/29 01:57:02;;;;;;;;;;;;;;;18.84;100.00;99530.81;5038864;28;19994;-42
2023/05/29 01:59:28;;;;;;;;;;;;;;;19.12;100.00;99522.25;5038894;28;19916;-43
2023/05/29 02:01:53;;;;;;;;;;;;;;;18.51;100.00;99552.66;5038419;28;20385;-43
2023/05/29 02:04:18;;;;;;;;;;;;;;;18.17;100.00;99544.09;5037442;28;20024;-43
2023/05/29 02:06:43;;;;;;;;;;;;;;;19.22;100.00;99536.44;5039069;28;20389;-43
2023/05/29 02:09:09;;;;;;;;;;;;;;;20.44;100.00;99501.88;5038306;28;20798;-44
2023/05/29 02:11:34;;;;;;;;;;;;;;;19.68;100.00;99498.84;5036914;28;19933;-43
2023/05/29 02:14:03;;;;;;;;;;;;;;;18.32;100.00;99550.25;5036983;28;20407;-43
2023/05/29 02:16:28;;;;;;;;;;;;;;;17.34;100.00;99571.88;5036913;28;20160;-43
2023/05/29 02:18:53;;;;;;;;;;;;;;;18.67;100.00;99544.81;5037883;28;19943;-44
2023/05/29 02:21:19;;;;;;;;;;;;;;;20.18;100.00;99493.09;5038982;28;20259;-43
2023/05/29 02:23:44;;;;;;;;;;;;;;;19.64;100.00;99501.66;5034894;28;20436;-44
2023/05/29 02:26:10;;;;;;;;;;;;;;;18.30;100.00;99534.69;5038003;28;20353;-43
2023/05/29 02:28:35;;;;;;;;;;;;;;;17.71;100.00;99549.97;5037392;28;20135;-43
2023/05/29 02:31:01;;;;;;;;;;;;;;;18.84;100.00;99536.91;5036532;28;20314;-44
2023/05/29 02:33:26;;;;;;;;;;;;;;;17.84;100.00;99560.63;5037520;28;20433;-43
2023/05/29 02:35:52;;;;;;;;;;;;;;;18.01;100.00;99536.25;5037331;28;20239;-43
2023/05/29 02:38:17;;;;;;;;;;;;;;;17.69;100.00;99544.00;5036965;28;19943;-43
2023/05/29 02:40:42;;;;;;;;;;;;;;;19.63;100.00;99499.13;5036212;28;19917;-43
2023/05/29 02:43:08;;;;;;;;;;;;;;;18.86;100.00;99510.69;5037555;28;19923;-43
2023/05/29 02:45:33;;;;;;;;;;;;;;;17.35;100.00;99547.50;5035625;28;19932;-43
2023/05/29 02:47:59;;;;;;;;;;;;;;;19.97;100.00;99495.28;5038264;28;20342;-43
2023/05/29 02:50:24;;;;;;;;;;;;;;;20.45;100.00;99487.84;5037239;28;20533;-43
2023/05/29 02:52:50;;;;;;;;;;;;;;;18.81;100.00;99527.47;5038161;28;19923;-43
2023/05/29 02:55:15;;;;;;;;;;;;;;;18.65;100.00;99524.03;5037572;28;19973;-43
2023/05/29 02:57:40;;;;;;;;;;;;;;;18.90;100.00;99522.66;5036796;28;20022;-43
2023/05/29 03:00:07;;;;;;;;;;;;;;;19.83;100.00;99506.63;5037017;28;20253;-43
2023/05/29 03:02:33;;;;;;;;;;;;;;;20.97;100.00;99473.13;5036511;28;19956;-43
2023/05/29 03:04:58;;;;;;;;;;;;;;;21.11;99.86;99464.34;5035264;28;19972;-43
2023/05/29 03:07:23;;;;;;;;;;;;;;;20.62;100.00;99478.13;5017828;28;20416;-43
2023/05/29 03:09:48;;;;;;;;;;;;;;;21.17;100.00;99474.41;5037089;28;19920;-43
2023/05/29 03:12:14;;;;;;;;;;;;;;;20.63;99.30;99482.41;5036242;28;20519;-43
2023/05/29 03:14:39;;;;;;;;;;;;;;;21.17;97.83;99466.56;5037030;28;20377;-43
2023/05/29 03:17:05;;;;;;;;;;;;;;;21.17;97.45;99463.94;5034272;28;20472;-43
2023/05/29 03:19:30;;;;;;;;;;;;;;;20.21;100.00;99499.94;5036953;28;20428;-43
2023/05/29 03:21:55;;;;;;;;;;;;;;;21.08;99.97;99472.41;5037595;28;20220;-43
2023/05/29 03:24:20;;;;;;;;;;;;;;;21.27;96.93;99462.34;5036945;28;20022;-43
2023/05/29 03:26:45;;;;;;;;;;;;;;;21.38;nan;99460.78;5036241;28;20031;-43
2023/05/29 03:29:11;;;;;;;;;;;;;;;20.60;97.67;99472.16;5001954;28;21106;-43
2023/05/29 03:31:36;;;;;;;;;;;;;;;21.23;97.91;99471.38;5035174;28;19929;-43
2023/05/29 03:34:01;;;;;;;;;;;;;;;21.59;95.58;99456.69;5019762;28;19923;-43
2023/05/29 03:36:27;;;;;;;;;;;;;;;21.47;94.18;99460.16;5036427;28;20015;-43
2023/05/29 03:38:52;;;;;;;;;;;;;;;21.45;94.73;99456.81;5035666;28;20376;-43
2023/05/29 03:41:17;;;;;;;;;;;;;;;20.19;97.56;99486.09;5036659;28;19932;-43
2023/05/29 03:43:42;;;;;;;;;;;;;;;20.97;97.03;99467.06;5018933;28;19917;-43
2023/05/29 03:46:08;;;;;;;;;;;;;;;21.44;95.82;99455.13;5036498;28;19924;-43
2023/05/29 03:48:33;;;;;;;;;;;;;;;21.40;94.83;99454.50;5037510;28;19920;-43
2023/05/29 03:50:58;;;;;;;;;;;;;;;21.43;95.67;99463.94;5036332;28;19986;-43
2023/05/29 03:53:23;;;;;;;;;;;;;;;21.43;94.52;99450.84;5019036;28;20325;-43
2023/05/29 03:55:48;;;;;;;;;;;;;;;21.02;95.56;99460.56;5037377;28;20293;-43
2023/05/29 03:58:14;;;;;;;;;;;;;;;21.76;94.22;99458.13;5037004;28;20353;-43
2023/05/29 04:00:39;;;;;;;;;;;;;;;19.50;99.66;99517.34;5034777;28;20474;-43
2023/05/29 04:03:04;;;;;;;;;;;;;;;19.16;100.00;99542.88;5036070;28;19925;-43
2023/05/29 04:05:30;;;;;;;;;;;;;;;18.00;100.00;99570.25;5036879;28;19920;-43
2023/05/29 04:07:55;;;;;;;;;;;;;;;17.67;100.00;99590.13;5036902;28;19995;-43
2023/05/29 04:10:21;;;;;;;;;;;;;;;17.85;100.00;99571.88;5035911;28;20330;-43
2023/05/29 04:12:46;;;;;;;;;;;;;;;17.43;100.00;99592.25;5035834;28;20000;-42
2023/05/29 04:15:11;;;;;;;;;;;;;;;17.92;100.00;99574.06;5017284;28;20012;-42
2023/05/29 04:17:36;;;;;;;;;;;;;;;17.63;100.00;99587.75;5036533;28;19997;-42
2023/05/29 04:20:07;;;;;;;;;;;;;;;17.05;100.00;99602.78;5017872;28;20012;-42
2023/05/29 04:22:33;;;;;;;;;;;;;;;17.09;100.00;99606.94;5035985;28;19972;-43
2023/05/29 04:24:58;;;;;;;;;;;;;;;18.41;100.00;99580.19;5017571;28;20006;-42
2023/05/29 04:27:23;;;;;;;;;;;;;;;17.46;100.00;99594.69;5036061;28;20352;-43
2023/05/29 04:29:49;;;;;;;;;;;;;;;18.27;100.00;99568.75;5035749;28;20376;-42
2023/05/29 04:32:14;;;;;;;;;;;;;;;18.94;100.00;99577.19;5036709;28;20284;-43
2023/05/29 04:34:39;;;;;;;;;;;;;;;18.65;100.00;99552.72;5035472;28;19921;-43
2023/05/29 04:37:05;;;;;;;;;;;;;;;19.53;100.00;99560.72;5037581;28;19928;-42
2023/05/29 04:39:31;;;;;;;;;;;;;;;20.78;100.00;99520.66;5038547;28;19928;-42
2023/05/29 04:41:58;;;;;;;;;;;;;;;20.34;100.00;99534.78;5040136;28;19931;-42
2023/05/29 04:44:25;;;;;;;;;;;;;;;21.46;100.00;99475.06;5039363;28;19921;-42
2023/05/29 04:46:51;;;;;;;;;;;;;;;20.92;100.00;99505.81;5039707;28;20004;-42
2023/05/29 04:49:17;;;;;;;;;;;;;;;21.68;99.45;99486.66;5038362;28;20256;-43
2023/05/29 04:51:42;;;;;;;;;;;;;;;21.80;95.75;99482.31;5040574;28;19964;-43
2023/05/29 04:54:09;;;;;;;;;;;;;;;20.88;100.00;99521.72;5038258;28;20361;-43
2023/05/29 04:56:34;;;;;;;;;;;;;;;20.37;100.00;99531.16;5039382;28;20503;-43
2023/05/29 04:58:59;;;;;;;;;;;;;;;17.90;100.00;99602.00;5040070;28;19921;-43
2023/05/29 05:01:25;;;;;;;;;;;;;;;19.12;100.00;99580.53;5039492;28;19933;-42
2023/05/29 05:03:50;;;;;;;;;;;;;;;18.88;100.00;99580.16;5038267;28;19917;-43
2023/05/29 05:06:16;;;;;;;;;;;;;;;18.42;100.00;99585.31;5038594;28;19979;-43
2023/05/29 05:08:42;;;;;;;;;;;;;;;19.20;100.00;99593.13;5040354;28;20433;-43
2023/05/29 05:11:07;;;;;;;;;;;;;;;19.91;100.00;99534.91;5037683;28;19939;-43
2023/05/29 05:13:32;;;;;;;;;;;;;;;18.62;100.00;99610.28;5039442;28;19920;-42
2023/05/29 05:15:58;;;;;;;;;;;;;;;17.56;100.00;99624.56;5037288;28;19944;-43
2023/05/29 05:18:23;;;;;;;;;;;;;;;17.79;100.00;99622.53;5040052;28;19959;-42
2023/05/29 05:20:48;;;;;;;;;;;;;;;17.90;100.00;99617.63;5040259;28;19921;-42
2023/05/29 05:23:13;;;;;;;;;;;;;;;18.92;100.00;99583.44;5038231;28;19964;-42
2023/05/29 05:25:38;;;;;;;;;;;;;;;18.78;100.00;99587.66;5036445;28;20009;-43
2023/05/29 05:28:04;;;;;;;;;;;;;;;19.10;100.00;99578.94;5036499;28;19928;-43
2023/05/29 05:30:29;;;;;;;;;;;;;;;19.00;100.00;99604.72;5038473;28;20413;-43
2023/05/29 05:32:55;;;;;;;;;;;;;;;17.71;100.00;99633.34;5035357;28;19920;-43
2023/05/29 05:35:21;;;;;;;;;;;;;;;19.11;100.00;99555.34;5037192;28;21264;-42
2023/05/29 05:37:46;;;;;;;;;;;;;;;18.78;100.00;99585.06;5036617;28;19980;-43
2023/05/29 05:40:11;;;;;;;;;;;;;;;18.78;100.00;99611.16;5035009;28;19931;-43
2023/05/29 05:42:37;;;;;;;;;;;;;;;19.26;100.00;99581.50;5038016;28;19925;-43
2023/05/29 05:45:02;;;;;;;;;;;;;;;20.03;100.00;99560.28;5036291;28;19916;-43
2023/05/29 05:47:28;;;;;;;;;;;;;;;18.61;100.00;99598.19;5037339;28;19978;-43
2023/05/29 05:49:54;;;;;;;;;;;;;;;19.57;100.00;99578.75;5036773;28;20417;-43
2023/05/29 05:52:19;;;;;;;;;;;;;;;17.67;100.00;99615.34;5038803;28;20219;-43
2023/05/29 05:54:44;;;;;;;;;;;;;;;19.81;100.00;99581.66;5037753;28;19921;-43
2023/05/29 05:57:10;;;;;;;;;;;;;;;18.66;100.00;99622.25;5038051;28;20471;-43
2023/05/29 05:59:35;;;;;;;;;;;;;;;18.75;100.00;99608.69;5038411;28;20300;-43
2023/05/29 06:02:01;;;;;;;;;;;;;;;19.05;100.00;99576.59;5037975;28;20164;-43
2023/05/29 06:04:26;;;;;;;;;;;;;;;18.84;100.00;99593.47;5039139;28;20521;-43
2023/05/29 06:06:51;;;;;;;;;;;;;;;19.44;100.00;99572.56;5038456;28;20007;-43
2023/05/29 06:09:17;;;;;;;;;;;;;;;19.92;100.00;99559.28;5037603;28;20008;-43
2023/05/29 06:11:42;;;;;;;;;;;;;;;20.94;100.00;99533.56;5038342;28;20031;-43
2023/05/29 06:14:07;;;;;;;;;;;;;;;19.26;100.00;99594.53;5039041;28;19921;-43
2023/05/29 06:16:32;;;;;;;;;;;;;;;17.47;100.00;99622.41;5036161;28;20337;-43
2023/05/29 06:18:58;;;;;;;;;;;;;;;18.04;100.00;99635.16;5039025;28;19917;-43
2023/05/29 06:21:23;;;;;;;;;;;;;;;19.82;100.00;99587.75;5038960;28;19925;-43
2023/05/29 06:23:48;;;;;;;;;;;;;;;18.43;100.00;99620.91;5038014;28;19923;-43
2023/05/29 06:26:15;;;;;;;;;;;;;;;18.73;100.00;99596.66;5038007;28;19927;-43
2023/05/29 06:28:40;;;;;;;;;;;;;;;18.83;100.00;99612.66;5039098;28;19947;-43
2023/05/29 06:31:06;;;;;;;;;;;;;;;18.68;100.00;99606.50;5038516;28;19921;-43
2023/05/29 06:33:31;;;;;;;;;;;;;;;19.31;100.00;99609.00;5039110;28;19943;-43
2023/05/29 06:35:56;;;;;;;;;;;;;;;19.76;100.00;99582.88;5037867;28;20286;-43
2023/05/29 06:38:22;;;;;;;;;;;;;;;21.10;100.00;99541.25;5037239;28;19973;-43
2023/05/29 06:40:47;;;;;;;;;;;;;;;18.89;100.00;99625.38;5036148;28;20201;-43
2023/05/29 06:43:12;;;;;;;;;;;;;;;19.73;100.00;99585.66;5004714;28;19921;-43
2023/05/29 06:45:38;;;;;;;;;;;;;;;20.34;100.00;99558.34;5036477;28;20055;-43
2023/05/29 06:48:03;;;;;;;;;;;;;;;19.39;100.00;99600.75;5036780;28;20003;-42
2023/05/29 06:50:28;;;;;;;;;;;;;;;20.37;100.00;99568.63;5038816;28;19923;-43
2023/05/29 06:52:53;;;;;;;;;;;;;;;20.37;100.00;99584.31;5038246;28;19943;-43
2023/05/29 06:55:19;;;;;;;;;;;;;;;21.88;100.00;99542.94;5036142;28;20294;-43
2023/05/29 06:57:45;;;;;;;;;;;;;;;20.02;97.48;99537.66;5036715;28;20340;-43
2023/05/29 07:00:10;;;;;;;;;;;;;;;21.67;100.00;99535.63;5036502;28;19925;-43
2023/05/29 07:02:36;;;;;;;;;;;;;;;21.85;95.82;99530.03;5036754;28;19931;-43
2023/05/29 07:05:01;;;;;;;;;;;;;;;20.55;100.00;99565.75;5037450;28;20645;-43
2023/05/29 07:07:26;;;;;;;;;;;;;;;21.59;100.00;99556.28;5037723;28;19920;-43
2023/05/29 07:09:51;;;;;;;;;;;;;;;20.51;100.00;99566.91;5037818;28;20389;-43
2023/05/29 07:12:17;;;;;;;;;;;;;;;20.12;100.00;99581.56;5037939;28;19927;-42
2023/05/29 07:14:42;;;;;;;;;;;;;;;20.05;100.00;99574.09;5036901;28;20321;-43
2023/05/29 07:17:07;;;;;;;;;;;;;;;22.22;99.64;99524.84;5037872;28;19963;-43
2023/05/29 07:19:33;;;;;;;;;;;;;;;19.87;100.00;99593.53;5036719;28;19960;-43
2023/05/29 07:21:59;;;;;;;;;;;;;;;20.60;100.00;99579.44;5038524;28;20014;-43
2023/05/29 07:24:24;;;;;;;;;;;;;;;19.19;100.00;99623.63;5035103;28;19970;-43
2023/05/29 07:26:49;;;;;;;;;;;;;;;22.72;100.00;99538.69;5037221;28;19917;-43
2023/05/29 07:29:16;;;;;;;;;;;;;;;21.54;100.00;99587.22;5037221;28;19969;-43
2023/05/29 07:31:42;;;;;;;;;;;;;;;20.70;100.00;99587.53;5036138;28;19928;-43
2023/05/29 07:34:07;;;;;;;;;;;;;;;21.13;100.00;99611.75;5035853;28;19917;-43
2023/05/29 07:36:32;;;;;;;;;;;;;;;20.12;100.00;99626.03;5016540;28;20398;-43
2023/05/29 07:39:00;;;;;;;;;;;;;;;22.90;98.86;99555.69;5036336;28;19913;-43
2023/05/29 07:41:26;;;;;;;;;;;;;;;22.45;94.49;99559.91;5036942;28;19979;-42
2023/05/29 07:43:52;;;;;;;;;;;;;;;20.38;100.00;99627.00;5035289;28;19960;-42
2023/05/29 07:46:17;;;;;;;;;;;;;;;22.06;100.00;99615.06;5036103;28;20635;-42
2023/05/29 07:48:43;;;;;;;;;;;;;;;21.69;100.00;99620.25;5036784;28;19928;-43
2023/05/29 07:51:10;;;;;;;;;;;;;;;20.97;100.00;99614.53;5036123;28;19951;-42
2023/05/29 07:53:35;;;;;;;;;;;;;;;22.08;100.00;99597.44;5035855;28;20390;-42
2023/05/29 07:56:00;;;;;;;;;;;;;;;21.86;97.19;99576.28;5035536;28;20034;-43
2023/05/29 07:58:26;;;;;;;;;;;;;;;21.78;99.96;99605.66;5018708;28;19921;-43
2023/05/29 08:00:52;;;;;;;;;;;;;;;20.77;100.00;99625.47;5034742;28;19917;-43
2023/05/29 08:03:17;;;;;;;;;;;;;;;21.11;98.11;99584.81;5036402;28;19921;-43
2023/05/29 08:05:42;;;;;;;;;;;;;;;21.06;100.00;99631.44;5038335;28;19936;-42
2023/05/29 08:08:08;;;;;;;;;;;;;;;21.82;100.00;99590.56;5037520;28;19966;-43
2023/05/29 08:10:33;;;;;;;;;;;;;;;20.82;100.00;99641.69;5037216;28;20381;-43
2023/05/29 08:12:58;;;;;;;;;;;;;;;20.30;100.00;99624.88;5036419;28;19921;-43
2023/05/29 08:15:26;;;;;;;;;;;;;;;21.79;100.00;99591.59;5039950;28;19928;-43
2023/05/29 08:17:51;;;;;;;;;;;;;;;22.22;100.00;99599.13;5041151;28;19916;-43
2023/05/29 08:20:16;;;;;;;;;;;;;;;26.54;87.10;99503.97;5039732;28;20342;-43
2023/05/29 08:22:42;;;;;;;;;;;;;;;25.57;83.93;99530.13;5037266;28;19982;-44
2023/05/29 08:25:08;;;;;;;;;;;;;;;22.78;88.69;99577.59;5044475;28;20003;-43
2023/05/29 08:27:33;;;;;;;;;;;;;;;22.43;98.41;99612.50;5045169;28;19931;-43
2023/05/29 08:29:59;;;;;;;;;;;;;;;21.69;95.41;99578.31;5029645;28;19924;-43
2023/05/29 08:32:25;;;;;;;;;;;;;;;23.79;90.41;99537.63;5046575;28;19932;-43
2023/05/29 08:34:50;;;;;;;;;;;;;;;22.45;93.80;99581.75;5043899;28;19999;-43
2023/05/29 08:37:16;;;;;;;;;;;;;;;21.61;95.94;99592.88;5045888;28;20070;-43
2023/05/29 08:39:41;;;;;;;;;;;;;;;23.82;90.95;99539.19;5042797;28;19928;-43
2023/05/29 08:42:07;;;;;;;;;;;;;;;21.92;95.63;99607.34;5024179;28;19932;-43
2023/05/29 08:44:32;;;;;;;;;;;;;;;22.49;93.20;99577.94;5041525;28;20992;-43
2023/05/29 08:46:57;;;;;;;;;;;;;;;23.04;93.26;99569.63;5040468;28;19928;-43
2023/05/29 08:49:22;;;;;;;;;;;;;;;22.50;89.98;99556.00;5017638;28;19921;-43
2023/05/29 08:51:50;;;;;;;;;;;;;;;23.74;91.79;99556.41;5041373;28;19931;-42
2023/05/29 08:54:15;;;;;;;;;;;;;;;23.97;91.62;99559.84;5024681;28;19916;-43
2023/05/29 08:56:41;;;;;;;;;;;;;;;24.39;88.20;99538.94;5023942;28;19920;-43
2023/05/29 08:59:07;;;;;;;;;;;;;;;23.73;91.44;99565.19;5042436;28;19921;-43
2023/05/29 09:01:34;;;;;;;;;;;;;;;23.90;91.17;99569.19;5024378;28;20017;-43
2023/05/29 09:04:00;;;;;;;;;;;;;;;23.65;92.56;99570.22;5023702;28;19931;-43
2023/05/29 09:06:26;;;;;;;;;;;;;;;22.58;91.84;99586.09;5040787;28;20007;-44
2023/05/29 09:08:52;;;;;;;;;;;;;;;23.91;88.09;99548.97;5041734;28;20508;-43
2023/05/29 09:11:17;;;;;;;;;;;;;;;22.39;90.38;99584.78;5042304;28;19925;-43
2023/05/29 09:13:42;;;;;;;;;;;;;;;23.20;92.06;99590.34;5042120;28;19920;-43
2023/05/29 09:16:08;;;;;;;;;;;;;;;22.12;93.89;99604.16;5021716;28;20492;-43
2023/05/29 09:18:33;;;;;;;;;;;;;;;23.86;90.60;99556.41;5020920;28;19925;-43
2023/05/29 09:20:58;;;;;;;;;;;;;;;22.62;95.42;99605.94;5038245;28;20314;-42
2023/05/29 09:23:25;;;;;;;;;;;;;;;21.98;97.00;99612.13;5015479;28;20003;-43
2023/05/29 09:25:53;;;;;;;;;;;;;;;22.74;91.60;99576.16;5042125;28;19921;-43
2023/05/29 09:28:20;;;;;;;;;;;;;;;23.02;90.87;99571.53;5034563;28;20027;-44
2023/05/29 09:30:49;;;;;;;;;;;;;;;24.19;87.72;99552.88;5039215;28;19931;-43
2023/05/29 09:33:16;;;;;;;;;;;;;;;26.48;84.55;99525.69;5037720;28;21360;-43
2023/05/29 09:35:41;;;;;;;;;;;;;;;25.58;87.09;99564.28;5038928;28;19944;-43
2023/05/29 09:38:07;;;;;;;;;;;;;;;24.86;85.42;99561.56;5035160;28;19991;-44
2023/05/29 09:40:33;;;;;;;;;;;;;;;23.56;89.09;99586.69;5036783;28;20381;-44
2023/05/29 09:43:04;;;;;;;;;;;;;;;23.83;87.08;99562.72;5038320;28;20280;-43
2023/05/29 09:45:30;;;;;;;;;;;;;;;26.03;86.15;99553.38;5039473;28;20160;-43
2023/05/29 09:47:55;;;;;;;;;;;;;;;24.74;85.91;99558.13;5020433;28;19939;-43
2023/05/29 09:50:20;;;;;;;;;;;;;;;23.36;84.56;99565.41;5037300;28;19925;-43
2023/05/29 09:52:46;;;;;;;;;;;;;;;22.96;92.19;99615.63;5020556;28;19978;-45
2023/05/29 09:55:12;;;;;;;;;;;;;;;24.29;90.06;99584.56;5036960;28;19916;-42
2023/05/29 09:57:38;;;;;;;;;;;;;;;23.94;91.53;99603.97;5019586;28;19917;-44
2023/05/29 10:00:05;;;;;;;;;;;;;;;23.21;89.39;99600.72;5018920;28;19932;-43
2023/05/29 10:02:31;;;;;;;;;;;;;;;23.45;91.11;99599.84;5020039;28;20567;-42
2023/05/29 10:04:56;;;;;;;;;;;;;;;26.32;82.42;99528.00;5036567;28;19920;-43
2023/05/29 10:07:28;;;;;;;;;;;;;;;24.87;83.47;99547.44;5037542;28;20425;-43
2023/05/29 10:09:55;;;;;;;;;;;;;;;24.45;84.92;99558.69;5020441;28;19927;-43
2023/05/29 10:12:23;;;;;;;;;;;;;;;25.04;82.99;99538.94;5019031;28;19925;-42
2023/05/29 10:14:49;;;;;;;;;;;;;;;24.03;83.95;99555.88;5019645;28;19932;-42
2023/05/29 10:17:14;;;;;;;;;;;;;;;25.11;79.11;99521.69;5019755;28;19917;-43
2023/05/29 10:19:39;;;;;;;;;;;;;;;24.55;85.69;99580.72;5019916;28;20039;-43
2023/05/29 10:22:05;;;;;;;;;;;;;;;24.42;84.27;99566.81;5038206;28;20190;-44
2023/05/29 10:24:34;;;;;;;;;;;;;;;26.25;79.13;99514.50;5037935;28;20328;-43
2023/05/29 10:27:00;;;;;;;;;;;;;;;26.44;76.99;99519.00;5019270;28;19920;-43
2023/05/29 10:29:27;;;;;;;;;;;;;;;23.03;83.51;99591.59;5017829;28;19920;-44
2023/05/29 10:31:52;;;;;;;;;;;;;;;24.57;82.28;99541.91;5020873;28;19924;-42
2023/05/29 10:34:33;;;;;;;;;;;;;;;25.37;80.24;99530.03;5037820;28;19928;-43
2023/05/29 10:37:04;;;;;;;;;;;;;;;26.05;75.20;99498.66;5034945;28;20266;-43
2023/05/29 10:39:29;;;;;;;;;;;;;;;26.51;80.98;99520.09;5018053;28;20203;-43
2023/05/29 10:41:58;;;;;;;;;;;;;;;24.28;78.78;99535.50;5034065;28;20276;-43
2023/05/29 10:44:32;;;;;;;;;;;;;;;24.03;86.31;99573.47;5035789;28;20302;-43
2023/05/29 10:47:04;;;;;;;;;;;;;;;27.59;72.82;99457.31;5038038;28;20007;-43
2023/05/29 10:49:31;;;;;;;;;;;;;;;26.02;76.40;99506.00;5018931;28;20477;-43
2023/05/29 10:51:57;;;;;;;;;;;;;;;26.83;79.25;99529.59;5016354;28;20345;-43
2023/05/29 10:54:22;;;;;;;;;;;;;;;24.91;80.65;99530.41;5036787;28;19921;-43
2023/05/29 10:56:57;;;;;;;;;;;;;;;25.81;78.50;99508.69;5019199;28;19998;-43
2023/05/29 10:59:27;;;;;;;;;;;;;;;25.90;76.59;99496.53;5038196;28;20223;-43
2023/05/29 11:01:53;;;;;;;;;;;;;;;24.10;76.82;99517.59;5036589;28;20436;-43
2023/05/29 11:04:21;;;;;;;;;;;;;;;24.78;81.01;99549.03;5018236;28;19916;-43
2023/05/29 11:06:47;;;;;;;;;;;;;;;25.74;78.11;99508.38;5035232;28;19963;-43
2023/05/29 11:09:29;;;;;;;;;;;;;;;23.59;88.46;99599.63;5036795;28;20399;-43
2023/05/29 11:12:10;;;;;;;;;;;;;;;26.06;79.24;99494.19;5037270;28;19916;-43
2023/05/29 11:14:44;;;;;;;;;;;;;;;24.99;81.63;99531.41;5035979;28;19917;-43
2023/05/29 11:17:09;;;;;;;;;;;;;;;25.62;81.03;99522.66;5037094;28;20083;-43
2023/05/29 11:19:35;;;;;;;;;;;;;;;26.39;79.31;99513.25;5019021;28;19923;-43
2023/05/29 11:22:09;;;;;;;;;;;;;;;27.37;75.24;99493.75;5018668;28;19960;-44
2023/05/29 11:24:36;;;;;;;;;;;;;;;24.91;79.75;99549.69;5036889;28;20015;-43
2023/05/29 11:27:06;;;;;;;;;;;;;;;25.91;74.77;99511.38;5035884;28;19930;-43
2023/05/29 11:29:31;;;;;;;;;;;;;;;25.97;81.05;99537.25;5036472;28;19971;-42
2023/05/29 11:32:02;;;;;;;;;;;;;;;25.05;84.06;99556.44;5036242;28;19921;-43
2023/05/29 11:34:28;;;;;;;;;;;;;;;28.42;76.24;99470.41;5036198;28;19920;-44
2023/05/29 11:36:53;;;;;;;;;;;;;;;26.16;74.00;99492.44;5034477;28;20161;-44
2023/05/29 11:39:18;;;;;;;;;;;;;;;25.45;77.79;99532.84;5017970;28;19986;-43
2023/05/29 11:41:43;;;;;;;;;;;;;;;24.64;78.66;99531.72;5016794;28;19963;-44
2023/05/29 11:44:09;;;;;;;;;;;;;;;25.10;80.87;99543.72;5036268;28;19920;-44
2023/05/29 11:46:34;;;;;;;;;;;;;;;25.32;78.70;99524.31;5017172;28;20275;-44
2023/05/29 11:49:00;;;;;;;;;;;;;;;26.26;74.49;99495.91;5037368;28;19917;-44
2023/05/29 11:51:25;;;;;;;;;;;;;;;28.14;68.53;99457.25;5035684;28;19935;-44
2023/05/29 11:53:53;;;;;;;;;;;;;;;25.54;75.23;99531.22;5018592;28;20367;-44
2023/05/29 11:56:18;;;;;;;;;;;;;;;25.88;80.25;99536.25;5035664;28;19921;-43
2023/05/29 11:58:43;;;;;;;;;;;;;;;24.82;77.81;99522.28;5036423;28;20393;-44
2023/05/29 12:01:08;;;;;;;;;;;;;;;27.62;78.95;99504.63;5034868;28;20012;-44
2023/05/29 12:03:38;;;;;;;;;;;;;;;27.68;74.82;99480.22;5018048;28;20171;-45
2023/05/29 12:06:03;;;;;;;;;;;;;;;27.19;76.00;99498.09;5036250;28;19917;-44
2023/05/29 12:08:29;;;;;;;;;;;;;;;29.73;76.25;99481.94;5036095;28;19927;-44
2023/05/29 12:10:54;;;;;;;;;;;;;;;27.05;73.61;99494.91;5035280;28;19932;-45
2023/05/29 12:13:19;;;;;;;;;;;;;;;27.39;69.89;99462.66;5036385;28;19913;-44
2023/05/29 12:15:45;;;;;;;;;;;;;;;27.89;68.63;99458.81;5034374;28;19921;-45
2023/05/29 12:18:11;;;;;;;;;;;;;;;25.97;71.99;99487.09;5017999;28;19917;-44
2023/05/29 12:20:36;;;;;;;;;;;;;;;26.86;74.08;99505.50;5035350;28;20293;-45
2023/05/29 12:23:01;;;;;;;;;;;;;;;27.68;66.44;99445.81;5033552;28;19920;-45
2023/05/29 12:25:27;;;;;;;;;;;;;;;28.99;68.58;99447.88;5035916;28;20323;-44
2023/05/29 12:27:52;;;;;;;;;;;;;;;26.66;69.72;99486.19;5037001;28;19966;-44
2023/05/29 12:30:17;;;;;;;;;;;;;;;27.21;72.74;99482.91;5020390;28;19920;-44
2023/05/29 12:32:43;;;;;;;;;;;;;;;28.04;71.27;99480.34;5036679;28;20378;-44
2023/05/29 12:35:12;;;;;;;;;;;;;;;28.55;71.09;99484.16;5033484;28;20435;-45
2023/05/29 12:37:46;;;;;;;;;;;;;;;28.69;66.06;99457.13;5033653;28;19952;-44